createdAt,value
2023-03-07T00:01:34.558Z,44.90
2023-03-07T00:04:01.896Z,45.93
2023-03-07T00:06:29.322Z,44.80
2023-03-07T00:09:01.990Z,44.23
2023-03-07T00:11:30.056Z,43.40
2023-03-07T00:13:57.352Z,45.20
2023-03-07T00:16:25.820Z,38.60
2023-03-07T00:18:54.451Z,46.53
2023-03-07T00:21:23.112Z,45.10
2023-03-07T00:23:52.861Z,38.87
2023-03-07T00:26:23.419Z,39.90
2023-03-07T00:28:52.717Z,38.00
2023-03-07T00:31:21.111Z,35.17
2023-03-07T00:33:48.325Z,30.40
2023-03-07T00:36:19.722Z,33.37
2023-03-07T00:38:47.912Z,30.20
2023-03-07T00:41:33.006Z,27.83
2023-03-07T00:44:00.104Z,24.77
2023-03-07T00:46:27.356Z,26.87
2023-03-07T00:48:54.935Z,28.37
2023-03-07T00:51:23.874Z,25.30
2023-03-07T00:53:51.741Z,23.83
2023-03-07T00:56:25.218Z,24.37
2023-03-07T00:58:53.160Z,25.13
2023-03-07T01:01:24.242Z,22.33
2023-03-07T01:03:54.622Z,26.87
2023-03-07T01:06:26.201Z,24.03
2023-03-07T01:08:55.676Z,24.40
2023-03-07T01:11:22.957Z,24.77
2023-03-07T01:13:50.111Z,21.97
2023-03-07T01:16:39.849Z,24.63
2023-03-07T01:19:12.472Z,26.23
2023-03-07T01:21:42.928Z,25.97
2023-03-07T01:24:15.176Z,25.10
2023-03-07T01:26:43.010Z,28.03
2023-03-07T01:29:11.821Z,28.00
2023-03-07T01:31:38.916Z,27.70
2023-03-07T01:34:06.553Z,29.73
2023-03-07T01:36:35.947Z,29.33
2023-03-07T01:39:17.171Z,26.43
2023-03-07T01:41:45.728Z,27.00
2023-03-07T01:44:25.939Z,24.80
2023-03-07T01:47:00.709Z,25.20
2023-03-07T01:49:42.811Z,25.00
2023-03-07T01:52:09.851Z,24.90
2023-03-07T01:54:42.831Z,23.07
2023-03-07T01:57:10.594Z,29.57
2023-03-07T01:59:45.716Z,24.60
2023-03-07T02:02:18.007Z,26.07
2023-03-07T02:04:57.250Z,31.40
2023-03-07T02:07:28.523Z,28.40
2023-03-07T02:09:57.192Z,23.83
2023-03-07T02:12:24.448Z,26.63
2023-03-07T02:14:52.387Z,24.93
2023-03-07T02:17:19.902Z,24.23
2023-03-07T02:20:05.803Z,27.63
2023-03-07T02:22:32.922Z,26.97
2023-03-07T02:25:14.484Z,23.43
2023-03-07T02:27:42.973Z,24.17
2023-03-07T02:30:11.033Z,25.20
2023-03-07T02:32:38.258Z,23.07
2023-03-07T02:35:23.436Z,23.23
2023-03-07T02:37:57.539Z,27.53
2023-03-07T02:40:29.578Z,27.17
2023-03-07T02:43:01.333Z,25.23
2023-03-07T02:45:28.431Z,24.43
2023-03-07T02:47:55.461Z,24.87
2023-03-07T02:50:22.487Z,26.83
2023-03-07T02:52:50.012Z,27.67
2023-03-07T02:55:17.174Z,28.07
2023-03-07T02:57:44.169Z,26.07
2023-03-07T03:00:12.561Z,28.87
2023-03-07T03:02:39.654Z,29.73
2023-03-07T03:05:07.649Z,28.47
2023-03-07T03:07:34.689Z,33.63
2023-03-07T03:10:01.777Z,32.30
2023-03-07T03:12:28.775Z,37.60
2023-03-07T03:14:55.802Z,37.13
2023-03-07T03:17:24.025Z,40.07
2023-03-07T03:19:51.112Z,47.37
2023-03-07T03:22:18.120Z,49.37
2023-03-07T03:24:45.196Z,48.83
2023-03-07T03:27:12.257Z,48.80
2023-03-07T03:29:39.561Z,52.10
2023-03-07T03:32:07.230Z,54.87
2023-03-07T03:34:34.305Z,53.30
2023-03-07T03:37:01.361Z,53.83
2023-03-07T03:39:29.166Z,55.10
2023-03-07T03:41:57.135Z,56.37
2023-03-07T03:44:24.404Z,54.87
2023-03-07T03:46:52.086Z,53.43
2023-03-07T03:49:19.790Z,60.50
2023-03-07T03:51:46.848Z,60.73
2023-03-07T03:54:13.874Z,57.93
2023-03-07T03:56:41.200Z,56.23
2023-03-07T03:59:08.216Z,53.77
2023-03-07T04:01:35.410Z,56.27
2023-03-07T04:04:02.573Z,53.87
2023-03-07T04:06:33.260Z,54.17
2023-03-07T04:09:00.941Z,53.30
2023-03-07T04:11:27.957Z,53.73
2023-03-07T04:13:55.069Z,50.97
2023-03-07T04:16:25.269Z,56.23
2023-03-07T04:18:52.979Z,44.73
2023-03-07T04:21:21.407Z,46.87
2023-03-07T04:23:50.457Z,47.93
2023-03-07T04:26:17.575Z,48.93
2023-03-07T04:28:49.458Z,46.20
2023-03-07T04:31:23.613Z,47.47
2023-03-07T04:33:53.092Z,52.13
2023-03-07T04:36:20.940Z,46.17
2023-03-07T04:38:49.682Z,46.67
2023-03-07T04:41:20.096Z,46.47
2023-03-07T04:43:47.547Z,49.50
2023-03-07T04:46:16.925Z,46.57
2023-03-07T04:48:44.917Z,44.23
2023-03-07T04:51:12.570Z,46.47
2023-03-07T04:53:39.760Z,44.90
2023-03-07T04:56:08.462Z,45.63
2023-03-07T04:58:36.919Z,48.30
2023-03-07T05:01:05.785Z,50.07
2023-03-07T05:03:34.140Z,49.20
2023-03-07T05:06:08.075Z,46.90
2023-03-07T05:08:35.682Z,46.63
2023-03-07T05:11:03.201Z,48.87
2023-03-07T05:13:30.638Z,46.83
2023-03-07T05:15:59.405Z,44.53
2023-03-07T05:18:27.415Z,48.73
2023-03-07T05:20:54.446Z,43.20
2023-03-07T05:23:21.976Z,46.97
2023-03-07T05:25:49.026Z,51.47
2023-03-07T05:28:17.077Z,45.40
2023-03-07T05:30:46.345Z,40.87
2023-03-07T05:33:14.958Z,46.60
2023-03-07T05:35:42.208Z,47.57
2023-03-07T05:38:09.597Z,51.60
2023-03-07T05:40:36.671Z,52.00
2023-03-07T05:43:04.027Z,52.33
2023-03-07T05:45:31.166Z,46.80
2023-03-07T05:47:58.233Z,51.20
2023-03-07T05:50:25.453Z,57.53
2023-03-07T05:52:53.145Z,62.77
2023-03-07T05:55:20.532Z,73.53
2023-03-07T05:57:47.609Z,69.17
2023-03-07T06:00:16.043Z,71.00
2023-03-07T06:02:43.365Z,65.87
2023-03-07T06:05:10.534Z,62.80
2023-03-07T06:07:37.531Z,63.33
2023-03-07T06:10:05.110Z,57.87
2023-03-07T06:12:32.110Z,54.40
2023-03-07T06:14:59.147Z,52.97
2023-03-07T06:17:26.151Z,52.90
2023-03-07T06:19:53.234Z,48.17
2023-03-07T06:22:20.436Z,52.23
2023-03-07T06:24:47.503Z,54.33
2023-03-07T06:27:14.517Z,51.43
2023-03-07T06:29:41.608Z,52.63
2023-03-07T06:32:08.655Z,52.07
2023-03-07T06:34:36.801Z,56.77
2023-03-07T06:37:04.023Z,51.97
2023-03-07T06:39:31.560Z,51.27
2023-03-07T06:41:58.720Z,53.30
2023-03-07T06:44:25.820Z,55.27
2023-03-07T06:46:52.863Z,50.80
2023-03-07T06:49:20.002Z,51.83
2023-03-07T06:51:47.042Z,51.77
2023-03-07T06:54:14.163Z,54.73
2023-03-07T06:56:43.028Z,48.60
2023-03-07T06:59:11.283Z,52.17
2023-03-07T07:01:38.561Z,43.47
2023-03-07T07:04:05.818Z,49.43
2023-03-07T07:06:32.931Z,47.53
2023-03-07T07:09:00.186Z,50.50
2023-03-07T07:11:27.808Z,44.47
2023-03-07T07:13:54.874Z,49.37
2023-03-07T07:16:21.940Z,46.43
2023-03-07T07:18:54.520Z,52.33
2023-03-07T07:21:21.677Z,51.77
2023-03-07T07:23:48.780Z,55.93
2023-03-07T07:26:15.904Z,51.33
2023-03-07T07:28:42.915Z,51.43
2023-03-07T07:31:10.062Z,47.27
2023-03-07T07:33:37.122Z,48.93
2023-03-07T07:36:04.657Z,38.73
2023-03-07T07:38:31.749Z,41.83
2023-03-07T07:40:58.933Z,45.53
2023-03-07T07:43:26.137Z,41.47
2023-03-07T07:45:53.151Z,43.10
2023-03-07T07:48:20.860Z,41.57
2023-03-07T07:50:48.010Z,38.93
2023-03-07T07:53:17.139Z,41.57
2023-03-07T07:55:45.758Z,38.70
2023-03-07T07:58:12.779Z,39.33
2023-03-07T08:00:39.802Z,42.33
2023-03-07T08:03:07.251Z,42.20
2023-03-07T08:05:34.378Z,48.07
2023-03-07T08:08:01.384Z,41.40
2023-03-07T08:10:28.434Z,45.63
2023-03-07T08:12:55.578Z,46.10
2023-03-07T08:15:22.678Z,45.20
2023-03-07T08:17:51.351Z,46.85
2023-03-07T08:20:22.396Z,44.83
2023-03-07T08:22:50.786Z,46.40
2023-03-07T08:25:22.503Z,45.08
2023-03-07T08:27:54.893Z,47.05
2023-03-07T08:30:28.487Z,40.80
2023-03-07T08:32:56.943Z,35.63
2023-03-07T08:35:25.446Z,36.72
2023-03-07T08:38:00.759Z,31.27
2023-03-07T08:40:32.163Z,26.27
2023-03-07T08:42:59.955Z,24.27
2023-03-07T08:45:27.192Z,30.17
2023-03-07T08:47:55.924Z,30.83
2023-03-07T08:50:26.654Z,24.60
2023-03-07T08:52:54.102Z,24.98
2023-03-07T08:55:21.254Z,25.95
2023-03-07T08:57:48.260Z,23.73
2023-03-07T09:00:16.020Z,26.15
2023-03-07T09:02:43.269Z,27.13
2023-03-07T09:05:10.870Z,23.05
2023-03-07T09:07:37.895Z,24.58
2023-03-07T09:10:05.959Z,24.42
2023-03-07T09:12:34.726Z,25.95
2023-03-07T09:15:01.760Z,28.00
2023-03-07T09:17:28.823Z,24.15
2023-03-07T09:19:56.608Z,27.45
2023-03-07T09:22:23.612Z,26.17
2023-03-07T09:24:50.636Z,24.63
2023-03-07T09:27:17.644Z,26.80
2023-03-07T09:29:45.043Z,22.45
2023-03-07T09:32:12.215Z,24.55
2023-03-07T09:34:39.424Z,21.38
2023-03-07T09:37:06.484Z,23.90
2023-03-07T09:39:33.823Z,20.95
2023-03-07T09:42:35.555Z,23.73
2023-03-07T09:45:27.478Z,23.98
2023-03-07T09:48:40.862Z,25.33
2023-03-07T09:51:27.320Z,23.67
2023-03-07T09:54:01.500Z,26.42
2023-03-07T09:56:38.351Z,26.65
2023-03-07T09:59:35.416Z,26.15
2023-03-07T10:02:12.978Z,28.13
2023-03-07T10:04:56.377Z,27.48
2023-03-07T10:07:28.089Z,28.08
2023-03-07T10:10:01.703Z,27.85
2023-03-07T10:13:02.407Z,27.40
2023-03-07T10:15:52.347Z,28.25
2023-03-07T10:18:54.247Z,33.92
2023-03-07T10:21:59.433Z,30.45
2023-03-07T10:24:48.756Z,33.72
2023-03-07T10:27:16.414Z,30.65
2023-03-07T10:29:50.895Z,32.58
2023-03-07T10:32:36.231Z,30.98
2023-03-07T10:35:12.304Z,36.67
2023-03-07T10:38:10.851Z,36.25
2023-03-07T10:40:57.825Z,33.20
2023-03-07T10:43:30.006Z,34.85
2023-03-07T10:46:25.133Z,42.08
2023-03-07T10:49:09.973Z,35.40
2023-03-07T10:52:24.491Z,35.85
2023-03-07T10:54:51.487Z,38.75
2023-03-07T10:57:26.273Z,39.28
2023-03-07T10:59:53.324Z,39.75
2023-03-07T11:02:37.263Z,40.50
2023-03-07T11:05:32.709Z,40.17
2023-03-07T11:08:00.756Z,36.45
2023-03-07T11:10:40.241Z,38.45
2023-03-07T11:13:22.361Z,40.70
2023-03-07T11:15:49.867Z,40.30
2023-03-07T11:18:41.308Z,41.75
2023-03-07T11:21:32.690Z,35.25
2023-03-07T11:24:05.806Z,39.60
2023-03-07T11:26:40.785Z,40.70
2023-03-07T11:29:11.555Z,37.00
2023-03-07T11:31:52.776Z,35.65
2023-03-07T11:34:52.494Z,38.00
2023-03-07T11:38:01.780Z,41.70
2023-03-07T11:41:09.944Z,39.58
2023-03-07T11:44:16.667Z,42.10
2023-03-07T11:47:08.636Z,39.67
2023-03-07T11:50:06.574Z,40.90
2023-03-07T11:53:16.507Z,41.17
2023-03-07T11:56:15.163Z,41.72
2023-03-07T11:59:09.921Z,42.10
2023-03-07T12:01:55.963Z,43.28
2023-03-07T12:04:47.157Z,39.38
2023-03-07T12:07:39.171Z,40.60
2023-03-07T12:10:38.532Z,39.30
2023-03-07T12:13:31.668Z,40.38
2023-03-07T12:16:13.944Z,37.42
2023-03-07T12:19:26.055Z,35.40
2023-03-07T12:22:27.375Z,33.83
2023-03-07T12:25:24.790Z,31.20
2023-03-07T12:28:21.380Z,33.95
2023-03-07T12:31:29.145Z,30.85
2023-03-07T12:34:19.371Z,28.88
2023-03-07T12:36:49.121Z,28.45
2023-03-07T12:39:32.298Z,26.98
2023-03-07T12:42:33.056Z,27.10
2023-03-07T12:45:18.807Z,30.67
2023-03-07T12:47:57.865Z,31.10
2023-03-07T12:50:46.470Z,25.03
2023-03-07T12:53:48.272Z,25.38
2023-03-07T12:56:57.126Z,30.17
2023-03-07T12:59:24.806Z,23.92
2023-03-07T13:02:23.432Z,26.13
2023-03-07T13:04:50.618Z,26.67
2023-03-07T13:07:32.313Z,23.63
2023-03-07T13:10:04.009Z,25.43
2023-03-07T13:12:36.232Z,25.13
2023-03-07T13:15:23.977Z,26.83
2023-03-07T13:17:50.841Z,24.27
2023-03-07T13:20:43.538Z,22.77
2023-03-07T13:23:25.955Z,28.20
2023-03-07T13:26:01.714Z,23.93
2023-03-07T13:28:46.862Z,24.80
2023-03-07T13:31:16.702Z,23.80
2023-03-07T13:33:44.171Z,25.07
2023-03-07T13:36:38.844Z,22.43
2023-03-07T13:39:38.660Z,24.43
2023-03-07T13:42:26.885Z,24.43
2023-03-07T13:44:55.037Z,24.70
2023-03-07T13:47:44.373Z,22.50
2023-03-07T13:50:35.792Z,25.73
2023-03-07T13:53:16.431Z,23.60
2023-03-07T13:55:48.613Z,24.57
2023-03-07T13:58:43.383Z,26.63
2023-03-07T14:01:49.468Z,24.63
2023-03-07T14:04:38.449Z,23.83
2023-03-07T14:07:21.376Z,25.00
2023-03-07T14:09:57.267Z,24.03
2023-03-07T14:12:56.810Z,24.97
2023-03-07T14:15:45.082Z,26.43
2023-03-07T14:18:17.531Z,28.20
2023-03-07T14:21:12.652Z,26.93
2023-03-07T14:24:23.378Z,28.10
2023-03-07T14:26:56.806Z,24.60
2023-03-07T14:29:29.792Z,23.93
2023-03-07T14:32:01.002Z,24.87
2023-03-07T14:34:34.885Z,22.13
2023-03-07T14:37:07.577Z,22.20
2023-03-07T14:39:51.080Z,22.73
2023-03-07T14:42:28.811Z,24.00
2023-03-07T14:45:26.495Z,25.13
2023-03-07T14:48:42.607Z,21.07
2023-03-07T14:51:20.737Z,20.63
2023-03-07T14:53:49.445Z,21.90
2023-03-07T14:56:32.210Z,19.93
2023-03-07T14:59:03.044Z,20.53
2023-03-07T15:01:36.987Z,18.97
2023-03-07T15:04:22.365Z,19.13
2023-03-07T15:07:04.804Z,20.63
2023-03-07T15:09:33.978Z,19.73
2023-03-07T15:12:28.211Z,17.47
2023-03-07T15:14:59.990Z,19.30
2023-03-07T15:17:38.213Z,19.27
2023-03-07T15:20:21.023Z,19.27
2023-03-07T15:22:48.207Z,21.20
2023-03-07T15:25:24.618Z,16.90
2023-03-07T15:28:16.812Z,21.10
2023-03-07T15:30:53.534Z,17.70
2023-03-07T15:33:20.669Z,17.80
2023-03-07T15:36:09.249Z,20.00
2023-03-07T15:38:36.709Z,13.20
2023-03-07T15:41:26.312Z,10.30
2023-03-07T15:44:18.521Z,12.20
2023-03-07T15:46:55.361Z,12.90
2023-03-07T15:49:37.125Z,12.93
2023-03-07T15:52:05.132Z,9.00
2023-03-07T15:54:40.549Z,18.10
2023-03-07T15:57:24.655Z,17.67
2023-03-07T16:00:07.020Z,19.47
2023-03-07T16:02:43.732Z,17.93
2023-03-07T16:05:19.928Z,14.93
2023-03-07T16:07:47.623Z,18.07
2023-03-07T16:10:14.957Z,18.27
2023-03-07T16:12:46.452Z,22.77
2023-03-07T16:15:16.270Z,19.10
2023-03-07T16:17:44.103Z,17.83
2023-03-07T16:20:17.689Z,20.20
2023-03-07T16:22:44.896Z,17.80
2023-03-07T16:25:11.913Z,16.73
2023-03-07T16:27:40.899Z,16.67
2023-03-07T16:30:15.783Z,17.47
2023-03-07T16:32:43.290Z,18.00
2023-03-07T16:35:36.828Z,15.60
2023-03-07T16:38:04.076Z,16.40
2023-03-07T16:40:32.472Z,17.60
2023-03-07T16:42:59.728Z,20.00
2023-03-07T16:45:32.377Z,15.37
2023-03-07T16:48:02.560Z,20.23
2023-03-07T16:50:33.436Z,17.17
2023-03-07T16:53:00.709Z,18.70
2023-03-07T16:55:31.436Z,16.73
2023-03-07T16:58:02.252Z,19.67
2023-03-07T17:00:29.558Z,18.60
2023-03-07T17:03:00.465Z,18.43
2023-03-07T17:05:29.951Z,17.70
2023-03-07T17:07:58.740Z,17.50
2023-03-07T17:10:27.624Z,17.57
2023-03-07T17:12:57.485Z,21.33
2023-03-07T17:15:30.469Z,17.43
2023-03-07T17:17:59.368Z,19.07
2023-03-07T17:20:27.516Z,22.30
2023-03-07T17:22:54.731Z,19.70
2023-03-07T17:25:22.944Z,18.23
2023-03-07T17:28:14.020Z,19.50
2023-03-07T17:30:44.968Z,22.47
2023-03-07T17:33:12.435Z,14.43
2023-03-07T17:35:39.604Z,23.67
2023-03-07T17:38:07.005Z,24.37
2023-03-07T17:40:34.241Z,19.67
2023-03-07T17:43:01.490Z,17.00
2023-03-07T17:45:28.586Z,22.17
2023-03-07T17:47:56.333Z,17.43
2023-03-07T17:50:24.025Z,23.07
2023-03-07T17:52:53.934Z,21.27
2023-03-07T17:55:22.479Z,24.00
2023-03-07T17:57:49.541Z,17.83
2023-03-07T18:00:20.579Z,19.50
2023-03-07T18:02:47.910Z,19.50
2023-03-07T18:05:14.990Z,16.33
2023-03-07T18:07:42.414Z,20.90
2023-03-07T18:10:11.771Z,18.50
2023-03-07T18:12:39.612Z,19.60
2023-03-07T18:15:15.309Z,21.53
2023-03-07T18:17:48.249Z,25.27
2023-03-07T18:20:20.654Z,21.37
2023-03-07T18:22:48.642Z,21.47
2023-03-07T18:25:17.936Z,19.20
2023-03-07T18:27:45.203Z,22.40
2023-03-07T18:30:14.137Z,20.97
2023-03-07T18:32:41.395Z,19.03
2023-03-07T18:35:09.098Z,26.93
2023-03-07T18:37:36.630Z,21.97
2023-03-07T18:40:04.646Z,19.10
2023-03-07T18:42:31.681Z,18.10
2023-03-07T18:44:58.757Z,23.53
2023-03-07T18:47:25.837Z,18.43
2023-03-07T18:49:52.870Z,20.77
2023-03-07T18:52:19.940Z,22.47
2023-03-07T18:54:49.080Z,18.63
2023-03-07T18:57:16.254Z,22.03
2023-03-07T18:59:43.400Z,22.80
2023-03-07T19:02:10.781Z,22.70
2023-03-07T19:04:37.915Z,20.80
2023-03-07T19:07:04.958Z,20.83
2023-03-07T19:09:32.096Z,19.77
2023-03-07T19:11:59.329Z,19.90
2023-03-07T19:14:26.500Z,22.13
2023-03-07T19:16:53.777Z,21.93
2023-03-07T19:19:21.048Z,19.50
2023-03-07T19:21:48.059Z,20.90
2023-03-07T19:24:15.260Z,16.83
2023-03-07T19:26:43.376Z,20.70
2023-03-07T19:29:12.231Z,20.03
2023-03-07T19:31:40.992Z,18.70
2023-03-07T19:34:08.878Z,19.50
2023-03-07T19:36:37.370Z,19.13
2023-03-07T19:39:05.688Z,18.47
2023-03-07T19:41:32.891Z,16.93
2023-03-07T19:44:01.201Z,21.43
2023-03-07T19:46:28.490Z,15.13
2023-03-07T19:48:56.005Z,16.70
2023-03-07T19:51:26.358Z,16.20
2023-03-07T19:53:57.158Z,22.10
2023-03-07T19:56:30.301Z,23.17
2023-03-07T19:59:00.189Z,20.87
2023-03-07T20:01:29.725Z,22.33
2023-03-07T20:03:57.288Z,19.33
2023-03-07T20:06:30.919Z,17.03
2023-03-07T20:08:59.673Z,16.67
2023-03-07T20:11:35.736Z,20.27
2023-03-07T20:14:05.354Z,16.53
2023-03-07T20:16:34.206Z,15.67
2023-03-07T20:19:05.337Z,17.70
2023-03-07T20:21:34.150Z,18.07
2023-03-07T20:24:01.250Z,14.40
2023-03-07T20:26:37.748Z,13.00
2023-03-07T20:29:08.000Z,14.10
2023-03-07T20:31:36.334Z,13.23
2023-03-07T20:34:03.585Z,17.90
2023-03-07T20:36:36.350Z,18.27
2023-03-07T20:39:08.644Z,13.83
2023-03-07T20:41:35.939Z,14.37
2023-03-07T20:44:06.400Z,14.20
2023-03-07T20:46:35.448Z,13.67
2023-03-07T20:49:03.259Z,12.73
2023-03-07T20:51:34.036Z,10.33
2023-03-07T20:54:13.242Z,11.67
2023-03-07T20:56:42.004Z,11.57
2023-03-07T20:59:12.358Z,9.27
2023-03-07T21:01:39.764Z,12.57
2023-03-07T21:04:11.482Z,11.07
2023-03-07T21:06:43.924Z,11.17
2023-03-07T21:09:13.930Z,10.63
2023-03-07T21:11:45.348Z,10.83
2023-03-07T21:14:14.483Z,9.70
2023-03-07T21:16:43.128Z,11.87
2023-03-07T21:19:11.634Z,9.87
2023-03-07T21:21:39.702Z,9.37
2023-03-07T21:24:07.431Z,10.60
2023-03-07T21:26:36.452Z,10.00
2023-03-07T21:29:04.940Z,10.80
2023-03-07T21:31:34.870Z,10.43
2023-03-07T21:34:06.241Z,9.07
2023-03-07T21:36:34.183Z,11.03
2023-03-07T21:39:04.239Z,11.80
2023-03-07T21:41:31.453Z,9.80
2023-03-07T21:43:59.254Z,11.33
2023-03-07T21:46:26.721Z,12.97
2023-03-07T21:48:54.255Z,11.10
2023-03-07T21:51:21.837Z,10.40
2023-03-07T21:53:48.897Z,10.57
2023-03-07T21:56:17.849Z,9.27
2023-03-07T21:58:49.220Z,10.67
2023-03-07T22:01:26.524Z,10.83
2023-03-07T22:03:58.646Z,12.40
2023-03-07T22:06:26.836Z,10.60
2023-03-07T22:08:54.238Z,13.83
2023-03-07T22:11:21.554Z,12.23
2023-03-07T22:13:48.602Z,10.73
2023-03-07T22:16:21.380Z,11.10
2023-03-07T22:18:56.065Z,9.73
2023-03-07T22:21:27.826Z,8.90
2023-03-07T22:23:58.007Z,6.33
2023-03-07T22:26:25.822Z,5.87
2023-03-07T22:28:53.855Z,3.73
2023-03-07T22:31:21.102Z,5.50
2023-03-07T22:33:48.521Z,2.40
2023-03-07T22:36:15.847Z,4.60
2023-03-07T22:38:43.746Z,2.63
2023-03-07T22:41:15.708Z,4.30
2023-03-07T22:43:43.381Z,1.40
2023-03-07T22:46:11.431Z,4.93
2023-03-07T22:48:39.074Z,4.33
2023-03-07T22:51:15.034Z,2.10
2023-03-07T22:53:42.152Z,4.33
2023-03-07T22:56:19.955Z,3.30
2023-03-07T22:58:47.109Z,5.03
2023-03-07T23:01:20.944Z,4.83
2023-03-07T23:03:49.832Z,2.83
2023-03-07T23:06:18.617Z,3.63
2023-03-07T23:08:47.769Z,3.63
2023-03-07T23:11:16.011Z,4.20
2023-03-07T23:13:43.887Z,2.43
2023-03-07T23:16:15.081Z,4.37
2023-03-07T23:18:43.447Z,3.80
2023-03-07T23:21:14.870Z,2.60
2023-03-07T23:23:42.338Z,3.40
2023-03-07T23:26:09.567Z,3.70
2023-03-07T23:28:36.646Z,3.37
2023-03-07T23:31:04.238Z,3.20
2023-03-07T23:33:31.401Z,3.47
2023-03-07T23:36:01.684Z,3.63
2023-03-07T23:38:28.712Z,2.57
2023-03-07T23:40:58.008Z,6.17
2023-03-07T23:43:25.036Z,4.40
2023-03-07T23:45:52.084Z,1.20
2023-03-07T23:48:19.104Z,2.50
2023-03-07T23:50:49.334Z,2.07
2023-03-07T23:53:16.333Z,2.37
2023-03-07T23:55:43.848Z,2.40
2023-03-07T23:58:10.923Z,2.30
